Time;durP1;ratioP1;P1;durP2;ratioP2;P2;SDS_P1;SDS_P2;PMS_P1;PMS_P2;Temp;Humidity;BMP_temperature;BMP_pressure;BME280_temperature;BME280_humidity;BME280_pressure;Samples;Min_cycle;Max_cycle;Signal;HPM_P1;HPM_P2
2021/12/03 00:00:26;;;;;;;12.93;10.05;;;0.00;99.90;;;;;;5155498;27;20418;-76
2021/12/03 00:02:52;;;;;;;14.07;10.35;;;0.00;99.90;;;;;;5156065;27;20074;-84
2021/12/03 00:05:18;;;;;;;14.95;10.23;;;0.00;99.90;;;;;;5137345;27;20131;-76
2021/12/03 00:07:44;;;;;;;15.57;10.45;;;0.10;99.90;;;;;;5146663;27;20078;-84
2021/12/03 00:10:12;;;;;;;13.82;10.25;;;0.10;99.90;;;;;;5155140;27;20574;-84
2021/12/03 00:12:38;;;;;;;12.95;10.40;;;0.00;99.90;;;;;;5155011;27;20041;-84
2021/12/03 00:15:06;;;;;;;16.40;10.45;;;0.00;99.90;;;;;;5155611;27;20129;-84
2021/12/03 00:17:32;;;;;;;14.57;10.95;;;0.00;99.90;;;;;;5136794;27;20035;-84
2021/12/03 00:19:58;;;;;;;16.92;10.82;;;0.00;99.90;;;;;;5155445;27;20115;-84
2021/12/03 00:22:24;;;;;;;14.45;11.25;;;0.00;99.90;;;;;;5154878;27;20042;-84
2021/12/03 00:24:50;;;;;;;12.30;10.65;;;0.00;99.90;;;;;;5154919;27;20047;-85
2021/12/03 00:27:16;;;;;;;15.75;12.20;;;0.00;99.90;;;;;;5132962;27;20045;-84
2021/12/03 00:29:42;;;;;;;18.30;11.85;;;0.10;99.90;;;;;;5137438;27;20060;-84
2021/12/03 00:32:08;;;;;;;13.60;11.48;;;0.10;99.90;;;;;;5154646;27;20054;-84
2021/12/03 00:34:34;;;;;;;16.67;11.95;;;0.10;99.90;;;;;;5154232;27;20038;-84
2021/12/03 00:37:00;;;;;;;15.95;11.43;;;0.10;99.90;;;;;;5155328;27;20057;-84
2021/12/03 00:39:27;;;;;;;12.55;11.15;;;0.20;99.90;;;;;;5153985;27;20483;-84
2021/12/03 00:41:59;;;;;;;12.93;10.93;;;0.20;99.90;;;;;;5154409;27;20051;-85
2021/12/03 00:44:25;;;;;;;13.10;10.32;;;0.20;99.90;;;;;;5153545;27;20502;-85
2021/12/03 00:46:52;;;;;;;13.45;10.70;;;0.20;99.90;;;;;;5155315;27;20122;-85
2021/12/03 00:49:18;;;;;;;13.73;11.02;;;0.30;99.90;;;;;;5154612;27;20407;-84
2021/12/03 00:51:44;;;;;;;15.23;10.95;;;0.20;99.90;;;;;;5153906;27;20031;-84
2021/12/03 00:54:09;;;;;;;16.48;11.75;;;0.30;99.90;;;;;;5154867;27;20051;-85
2021/12/03 00:56:35;;;;;;;16.80;12.90;;;0.20;99.90;;;;;;5154578;27;20070;-84
2021/12/03 00:59:01;;;;;;;14.75;12.90;;;0.20;99.90;;;;;;5154670;27;20376;-84
2021/12/03 01:01:27;;;;;;;15.00;13.07;;;0.20;99.90;;;;;;5153089;27;20034;-84
2021/12/03 01:03:53;;;;;;;19.27;13.50;;;0.20;99.90;;;;;;5154782;27;20632;-84
2021/12/03 01:06:18;;;;;;;21.73;14.43;;;0.20;99.90;;;;;;5136553;27;20479;-84
2021/12/03 01:08:44;;;;;;;16.92;14.40;;;0.20;99.90;;;;;;5153265;27;20049;-84
2021/12/03 01:11:12;;;;;;;18.60;15.43;;;0.20;99.90;;;;;;5154892;27;20523;-84
2021/12/03 01:13:39;;;;;;;17.90;15.93;;;0.20;99.90;;;;;;5153847;27;20049;-84
2021/12/03 01:16:07;;;;;;;20.67;15.68;;;0.20;99.90;;;;;;5154825;27;20050;-85
2021/12/03 01:18:33;;;;;;;24.65;17.48;;;0.20;99.90;;;;;;5153775;27;20106;-84
2021/12/03 01:20:59;;;;;;;23.27;17.08;;;0.30;99.90;;;;;;5154204;27;20039;-85
2021/12/03 01:23:25;;;;;;;24.05;17.50;;;0.30;99.90;;;;;;5135867;27;20513;-85
2021/12/03 01:25:51;;;;;;;21.85;17.33;;;0.20;99.90;;;;;;5152948;27;20070;-86
2021/12/03 01:28:16;;;;;;;25.00;18.65;;;0.20;99.90;;;;;;5154170;27;20049;-85
2021/12/03 01:30:43;;;;;;;22.05;19.13;;;0.30;99.90;;;;;;5153041;27;20045;-85
2021/12/03 01:33:08;;;;;;;25.50;19.92;;;0.30;99.90;;;;;;5154445;27;20415;-86
2021/12/03 01:35:38;;;;;;;26.63;21.02;;;0.30;99.90;;;;;;5153574;27;20050;-84
2021/12/03 01:38:06;;;;;;;24.73;22.00;;;0.30;99.90;;;;;;5154070;27;20086;-85
2021/12/03 01:40:34;;;;;;;31.15;22.27;;;0.30;99.90;;;;;;5136135;27;20106;-84
2021/12/03 01:43:01;;;;;;;28.77;23.08;;;0.30;99.90;;;;;;5128589;27;20452;-85
2021/12/03 01:45:31;;;;;;;27.73;23.98;;;0.30;99.90;;;;;;5133335;27;20118;-85
2021/12/03 01:47:58;;;;;;;32.33;25.03;;;0.30;99.90;;;;;;5133427;27;20053;-85
2021/12/03 01:50:30;;;;;;;30.73;25.17;;;0.30;99.90;;;;;;5133067;27;20295;-86
2021/12/03 01:52:56;;;;;;;35.28;26.08;;;0.30;99.90;;;;;;5131227;28;20039;-85
2021/12/03 01:55:23;;;;;;;34.63;26.20;;;0.30;99.90;;;;;;5115180;28;20050;-85
2021/12/03 01:57:49;;;;;;;33.55;26.35;;;0.30;99.90;;;;;;5132568;27;20043;-85
2021/12/03 02:00:25;;;;;;;32.72;27.40;;;0.40;99.90;;;;;;5133477;27;20066;-85
2021/12/03 02:02:52;;;;;;;33.20;27.90;;;0.40;99.90;;;;;;5130762;28;20726;-85
2021/12/03 02:05:17;;;;;;;33.22;28.48;;;0.40;99.90;;;;;;5122640;27;20536;-85
2021/12/03 02:07:44;;;;;;;35.78;29.40;;;0.40;99.90;;;;;;5131027;28;20126;-85
2021/12/03 02:10:10;;;;;;;35.58;30.25;;;0.40;99.90;;;;;;5133191;27;20089;-85
2021/12/03 02:12:38;;;;;;;35.67;30.38;;;0.40;99.90;;;;;;5131971;27;20139;-86
2021/12/03 02:15:04;;;;;;;37.58;32.92;;;0.40;99.90;;;;;;5132712;28;20092;-85
2021/12/03 02:17:30;;;;;;;41.88;34.28;;;0.40;99.90;;;;;;5131393;28;20476;-85
2021/12/03 02:19:56;;;;;;;39.05;34.97;;;0.40;99.90;;;;;;5132693;27;20053;-84
2021/12/03 02:22:22;;;;;;;40.25;35.45;;;0.50;99.90;;;;;;5132785;28;20576;-85
2021/12/03 02:24:47;;;;;;;38.53;34.42;;;0.60;99.90;;;;;;5132051;27;20050;-85
2021/12/03 02:27:13;;;;;;;42.28;34.70;;;0.50;99.90;;;;;;5132961;28;20062;-86
2021/12/03 02:29:39;;;;;;;41.38;34.22;;;0.50;99.90;;;;;;5131674;27;20039;-85
2021/12/03 02:32:05;;;;;;;38.35;33.00;;;0.50;99.90;;;;;;5134719;27;20148;-85
2021/12/03 02:34:32;;;;;;;36.40;31.45;;;0.50;99.90;;;;;;5127648;27;20089;-82
2021/12/03 02:36:58;;;;;;;34.47;29.77;;;0.50;99.90;;;;;;5135365;27;20051;-85
2021/12/03 02:39:24;;;;;;;35.30;29.75;;;0.50;99.90;;;;;;5136553;27;20039;-85
2021/12/03 02:41:50;;;;;;;34.75;28.83;;;0.50;99.90;;;;;;5143649;27;20054;-86
2021/12/03 02:44:15;;;;;;;34.10;30.33;;;0.50;99.90;;;;;;5155522;27;20074;-85
2021/12/03 02:46:41;;;;;;;34.85;29.60;;;0.60;99.90;;;;;;5152480;27;20054;-86
2021/12/03 02:49:09;;;;;;;34.10;30.30;;;0.50;99.90;;;;;;5138278;27;20046;-85
2021/12/03 02:51:34;;;;;;;34.20;29.95;;;0.60;99.90;;;;;;5157181;27;20043;-86
2021/12/03 02:54:01;;;;;;;33.83;29.75;;;0.60;99.90;;;;;;5156960;27;20042;-85
2021/12/03 02:56:27;;;;;;;32.53;28.42;;;0.70;99.90;;;;;;5156430;27;20410;-85
2021/12/03 02:58:52;;;;;;;32.63;29.13;;;0.60;99.90;;;;;;5156778;27;20042;-85
2021/12/03 03:01:18;;;;;;;31.48;28.33;;;0.60;99.90;;;;;;5156373;27;20042;-85
2021/12/03 03:03:44;;;;;;;35.03;29.40;;;0.60;99.90;;;;;;5156361;27;20102;-86
2021/12/03 03:06:09;;;;;;;32.53;28.42;;;0.70;99.90;;;;;;5156695;27;20109;-85
2021/12/03 03:08:36;;;;;;;30.50;27.35;;;0.60;99.90;;;;;;5138753;27;20079;-86
2021/12/03 03:11:06;;;;;;;30.00;26.77;;;0.70;99.90;;;;;;5155795;27;20042;-85
2021/12/03 03:13:31;;;;;;;32.05;27.45;;;0.60;99.90;;;;;;5157206;27;20081;-85
2021/12/03 03:15:57;;;;;;;30.40;27.20;;;0.60;99.90;;;;;;5120150;27;20078;-85
2021/12/03 03:18:25;;;;;;;30.35;26.15;;;0.60;99.90;;;;;;5156742;27;20058;-85
2021/12/03 03:20:53;;;;;;;29.85;26.70;;;0.60;99.90;;;;;;5156111;27;20447;-86
2021/12/03 03:23:19;;;;;;;30.20;26.77;;;0.60;99.90;;;;;;5156632;27;20092;-85
2021/12/03 03:25:47;;;;;;;28.83;25.67;;;0.60;99.90;;;;;;5156315;27;20495;-85
2021/12/03 03:28:14;;;;;;;31.77;27.63;;;0.60;99.90;;;;;;5133692;27;20047;-83
2021/12/03 03:30:42;;;;;;;31.20;27.80;;;0.60;99.90;;;;;;5156732;27;20487;-86
2021/12/03 03:33:09;;;;;;;30.95;27.63;;;0.60;99.90;;;;;;5156424;27;20130;-86
2021/12/03 03:35:35;;;;;;;30.75;27.25;;;0.60;99.90;;;;;;5155988;27;20399;-86
2021/12/03 03:38:01;;;;;;;28.98;25.85;;;0.50;99.90;;;;;;5155859;27;20042;-85
2021/12/03 03:40:28;;;;;;;29.50;26.33;;;0.70;99.90;;;;;;5146351;27;20054;-85
2021/12/03 03:42:54;;;;;;;30.23;27.23;;;0.60;99.90;;;;;;5129373;27;20087;-85
2021/12/03 03:45:22;;;;;;;31.15;26.92;;;0.60;99.90;;;;;;5156552;27;20051;-85
2021/12/03 03:47:48;;;;;;;32.90;27.60;;;0.60;99.90;;;;;;5155380;27;20057;-85
2021/12/03 03:50:16;;;;;;;32.58;26.42;;;0.60;99.90;;;;;;5156973;27;20102;-85
2021/12/03 03:52:44;;;;;;;32.33;28.58;;;0.60;99.90;;;;;;5156065;27;20567;-85
2021/12/03 03:55:12;;;;;;;32.25;26.95;;;0.60;99.90;;;;;;5137520;27;20125;-85
2021/12/03 03:57:38;;;;;;;35.65;29.38;;;0.60;99.90;;;;;;5155319;27;20095;-85
2021/12/03 04:00:08;;;;;;;32.00;28.40;;;0.50;99.90;;;;;;5155650;27;20078;-85
2021/12/03 04:02:34;;;;;;;32.85;28.92;;;0.50;99.90;;;;;;5156005;27;20042;-86
2021/12/03 04:04:59;;;;;;;32.55;27.50;;;0.60;99.90;;;;;;5154397;27;20054;-86
2021/12/03 04:07:25;;;;;;;34.38;30.38;;;0.50;99.90;;;;;;5147677;27;20097;-86
2021/12/03 04:09:51;;;;;;;32.70;29.20;;;0.60;99.90;;;;;;5134790;27;20039;-85
2021/12/03 04:12:17;;;;;;;33.25;29.65;;;0.50;99.90;;;;;;5155007;27;20474;-85
2021/12/03 04:14:42;;;;;;;35.28;30.50;;;0.50;99.90;;;;;;5155911;27;20050;-85
2021/12/03 04:17:08;;;;;;;35.22;30.45;;;0.50;99.90;;;;;;5154083;27;20054;-82
2021/12/03 04:19:35;;;;;;;36.65;31.38;;;0.50;99.90;;;;;;5155461;27;20047;-85
2021/12/03 04:22:02;;;;;;;35.55;30.90;;;0.50;99.90;;;;;;5136402;27;20125;-85
2021/12/03 04:24:28;;;;;;;37.42;30.95;;;0.50;99.90;;;;;;5155828;27;20038;-85
2021/12/03 04:26:53;;;;;;;38.50;31.40;;;0.60;99.90;;;;;;5136186;27;20042;-85
2021/12/03 04:29:19;;;;;;;38.00;31.80;;;0.60;99.90;;;;;;5136861;27;20118;-85
2021/12/03 04:31:45;;;;;;;37.67;31.27;;;0.50;99.90;;;;;;5155397;27;20064;-85
2021/12/03 04:34:11;;;;;;;37.15;32.10;;;0.50;99.90;;;;;;5153338;27;20051;-84
2021/12/03 04:36:36;;;;;;;39.95;31.50;;;0.50;99.90;;;;;;5155012;27;20092;-83
2021/12/03 04:39:03;;;;;;;39.42;32.20;;;0.60;99.90;;;;;;5153920;27;20066;-86
2021/12/03 04:41:29;;;;;;;41.50;32.60;;;0.60;99.90;;;;;;5155268;27;20046;-85
2021/12/03 04:43:55;;;;;;;39.90;32.95;;;0.60;99.90;;;;;;5154664;27;20440;-84
2021/12/03 04:46:22;;;;;;;42.08;32.88;;;0.50;99.90;;;;;;5155101;27;20039;-84
2021/12/03 04:48:48;;;;;;;42.58;33.28;;;0.60;99.90;;;;;;5154523;27;20483;-84
2021/12/03 04:51:14;;;;;;;43.95;33.92;;;0.60;99.90;;;;;;5154510;27;20035;-85
2021/12/03 04:53:40;;;;;;;40.13;32.70;;;0.60;99.90;;;;;;5154436;27;20038;-86
2021/12/03 04:56:06;;;;;;;44.33;34.08;;;0.60;99.90;;;;;;5154477;27;20050;-85
2021/12/03 04:58:32;;;;;;;43.08;32.90;;;0.60;99.90;;;;;;5154263;27;20035;-85
2021/12/03 05:00:59;;;;;;;46.33;35.63;;;0.60;99.90;;;;;;5135794;27;20039;-85
2021/12/03 05:03:26;;;;;;;49.45;36.00;;;0.60;99.90;;;;;;5154254;27;20376;-85
2021/12/03 05:05:58;;;;;;;45.53;36.55;;;0.60;99.90;;;;;;5154670;27;20046;-76
2021/12/03 05:08:26;;;;;;;45.90;35.40;;;0.60;99.90;;;;;;5154976;27;20078;-86
2021/12/03 05:10:53;;;;;;;47.47;36.85;;;0.60;99.90;;;;;;5154735;27;20052;-77
2021/12/03 05:13:22;;;;;;;44.63;36.33;;;0.60;99.90;;;;;;5154960;27;20054;-85
2021/12/03 05:15:48;;;;;;;49.83;38.13;;;0.60;99.90;;;;;;5136342;27;20042;-86
2021/12/03 05:18:20;;;;;;;48.30;36.85;;;0.60;99.90;;;;;;5154197;27;20223;-85
2021/12/03 05:20:48;;;;;;;46.70;37.80;;;0.60;99.90;;;;;;5135645;27;20502;-86
2021/12/03 05:23:15;;;;;;;47.85;37.55;;;0.60;99.90;;;;;;5135563;27;20578;-85
2021/12/03 05:25:41;;;;;;;51.03;38.65;;;0.60;99.90;;;;;;5136418;27;20049;-85
2021/12/03 05:28:07;;;;;;;54.03;40.63;;;0.60;99.90;;;;;;5154125;27;20051;-85
2021/12/03 05:30:33;;;;;;;53.95;40.90;;;0.70;99.90;;;;;;5154503;27;20078;-85
2021/12/03 05:32:59;;;;;;;53.72;39.80;;;0.70;99.90;;;;;;5153963;27;20062;-84
2021/12/03 05:35:26;;;;;;;57.65;42.67;;;0.70;99.90;;;;;;5135455;27;20109;-85
2021/12/03 05:37:51;;;;;;;58.00;39.90;;;0.70;99.90;;;;;;5136019;27;20058;-85
2021/12/03 05:40:18;;;;;;;55.83;41.35;;;0.70;99.90;;;;;;5135559;27;20046;-86
2021/12/03 05:42:45;;;;;;;57.63;39.72;;;0.70;99.90;;;;;;5154330;27;20058;-85
2021/12/03 05:45:19;;;;;;;59.97;41.80;;;0.80;99.90;;;;;;5153822;27;20047;-85
2021/12/03 05:47:45;;;;;;;56.80;40.70;;;0.70;99.90;;;;;;5154359;27;20399;-85
2021/12/03 05:50:12;;;;;;;57.38;39.63;;;0.70;99.90;;;;;;5152857;27;20475;-84
2021/12/03 05:52:38;;;;;;;56.97;39.35;;;0.70;99.90;;;;;;5154147;27;20055;-85
2021/12/03 05:55:05;;;;;;;61.22;40.08;;;0.70;99.90;;;;;;5153609;27;20039;-86
2021/12/03 05:57:31;;;;;;;58.78;41.35;;;0.70;99.90;;;;;;5154275;27;20045;-86
2021/12/03 05:59:57;;;;;;;57.17;39.42;;;0.70;99.90;;;;;;5154163;27;20043;-85
2021/12/03 06:02:22;;;;;;;58.08;38.50;;;0.70;99.90;;;;;;5135258;27;20053;-86
2021/12/03 06:04:49;;;;;;;53.50;38.25;;;0.70;99.90;;;;;;5154761;27;20125;-85
2021/12/03 06:07:15;;;;;;;55.53;37.90;;;0.70;99.90;;;;;;5138851;27;20042;-85
2021/12/03 06:09:42;;;;;;;54.63;38.13;;;0.60;99.90;;;;;;5158478;27;20043;-85
2021/12/03 06:12:09;;;;;;;56.83;38.75;;;0.60;99.90;;;;;;5157703;27;20387;-85
2021/12/03 06:14:35;;;;;;;62.92;39.55;;;0.60;99.90;;;;;;5158322;27;20046;-84
2021/12/03 06:17:00;;;;;;;58.70;39.03;;;0.60;99.90;;;;;;5157946;27;20044;-76
2021/12/03 06:19:26;;;;;;;60.67;40.28;;;0.60;99.90;;;;;;5158050;27;20117;-86
2021/12/03 06:21:52;;;;;;;62.55;39.78;;;0.60;99.90;;;;;;5139192;27;20053;-87
2021/12/03 06:24:18;;;;;;;64.65;40.20;;;0.60;99.90;;;;;;5157541;27;20039;-87
2021/12/03 06:26:44;;;;;;;60.60;39.25;;;0.70;99.90;;;;;;5158119;27;20103;-86
2021/12/03 06:29:10;;;;;;;67.97;40.70;;;0.70;99.90;;;;;;5157665;27;20051;-87
2021/12/03 06:31:36;;;;;;;66.05;42.10;;;0.70;99.90;;;;;;5158161;27;20062;-86
2021/12/03 06:34:02;;;;;;;69.50;40.78;;;0.70;99.90;;;;;;5139475;27;20070;-78
2021/12/03 06:36:27;;;;;;;69.40;40.50;;;0.70;99.90;;;;;;5156476;27;20057;-88
2021/12/03 06:38:53;;;;;;;67.13;40.53;;;0.70;99.90;;;;;;5139851;27;20047;-86
2021/12/03 06:41:19;;;;;;;70.00;41.47;;;0.70;99.90;;;;;;5157211;27;20041;-86
2021/12/03 06:43:45;;;;;;;71.47;41.67;;;0.80;99.90;;;;;;5157386;27;20141;-86
2021/12/03 06:46:11;;;;;;;69.95;41.08;;;0.80;99.90;;;;;;5138879;27;20129;-87
2021/12/03 06:48:36;;;;;;;66.47;42.58;;;0.80;99.90;;;;;;5139480;27;20038;-87
2021/12/03 06:51:02;;;;;;;73.47;43.97;;;0.80;99.90;;;;;;5157921;27;20125;-87
2021/12/03 06:53:40;;;;;;;71.13;42.53;;;0.90;99.90;;;;;;5156218;27;20247;-86
2021/12/03 06:56:08;;;;;;;73.00;43.85;;;0.90;99.90;;;;;;5157343;27;20050;-77
2021/12/03 06:58:34;;;;;;;76.40;43.42;;;0.90;99.90;;;;;;5157205;27;20487;-87
2021/12/03 07:01:00;;;;;;;71.63;42.85;;;0.90;99.90;;;;;;5157385;27;20129;-87
2021/12/03 07:03:26;;;;;;;70.25;42.35;;;0.90;99.90;;;;;;5138362;27;20074;-87
2021/12/03 07:05:51;;;;;;;72.00;42.42;;;1.00;99.90;;;;;;5157538;27;20076;-88
2021/12/03 07:08:17;;;;;;;71.22;43.30;;;1.00;99.90;;;;;;5155793;27;20509;-83
2021/12/03 07:10:43;;;;;;;71.40;43.50;;;1.00;99.90;;;;;;5157194;27;20039;-87
2021/12/03 07:13:09;;;;;;;68.70;43.70;;;1.00;99.90;;;;;;5156664;27;20042;-84
2021/12/03 07:15:35;;;;;;;70.03;42.97;;;1.00;99.90;;;;;;5156590;27;20460;-88
2021/12/03 07:18:02;;;;;;;69.75;43.35;;;1.10;99.90;;;;;;5137730;27;20039;-86
2021/12/03 07:20:28;;;;;;;68.18;42.72;;;1.10;99.90;;;;;;5155559;27;20046;-87
2021/12/03 07:22:54;;;;;;;69.88;42.38;;;1.20;99.90;;;;;;5157048;27;20372;-87
2021/12/03 07:25:21;;;;;;;72.68;43.60;;;1.10;99.90;;;;;;5156335;27;20050;-85
2021/12/03 07:27:48;;;;;;;75.10;42.65;;;1.20;99.90;;;;;;5156761;27;20038;-86
2021/12/03 07:30:16;;;;;;;77.68;42.67;;;1.20;99.90;;;;;;5137146;27;20047;-86
2021/12/03 07:32:42;;;;;;;66.20;40.92;;;1.20;99.90;;;;;;5156721;27;20039;-87
2021/12/03 07:35:09;;;;;;;75.63;43.38;;;1.20;99.90;;;;;;5156851;27;20042;-86
2021/12/03 07:37:35;;;;;;;70.03;41.10;;;1.30;99.90;;;;;;5137873;27;20046;-85
2021/12/03 07:40:04;;;;;;;70.95;40.35;;;1.30;99.90;;;;;;5156694;27;20102;-85
2021/12/03 07:42:31;;;;;;;70.53;39.88;;;1.30;99.90;;;;;;5156113;27;20051;-85
2021/12/03 07:44:57;;;;;;;70.97;39.72;;;1.30;99.90;;;;;;5156624;27;20042;-83
2021/12/03 07:47:22;;;;;;;72.75;39.95;;;1.40;99.90;;;;;;5155499;27;20539;-83
2021/12/03 07:49:50;;;;;;;74.65;42.42;;;1.40;99.90;;;;;;5156639;27;20110;-85
2021/12/03 07:52:17;;;;;;;76.60;42.83;;;1.40;99.90;;;;;;5155904;27;20043;-82
2021/12/03 07:54:43;;;;;;;74.40;41.67;;;1.50;99.90;;;;;;5156452;27;20125;-82
2021/12/03 07:57:09;;;;;;;74.78;41.72;;;1.50;99.90;;;;;;5156321;27;20175;-81
2021/12/03 07:59:35;;;;;;;78.32;41.85;;;1.50;99.90;;;;;;5155689;27;20090;-78
2021/12/03 08:02:00;;;;;;;80.70;41.50;;;1.50;99.90;;;;;;5155692;27;20043;-77
2021/12/03 08:04:26;;;;;;;83.47;43.97;;;1.50;99.90;;;;;;5155215;27;20041;-78
2021/12/03 08:06:54;;;;;;;87.90;44.00;;;1.50;99.90;;;;;;5137765;27;20510;-78
2021/12/03 08:09:21;;;;;;;88.18;44.28;;;1.50;99.90;;;;;;5137347;27;20046;-79
2021/12/03 08:11:47;;;;;;;86.70;43.33;;;1.60;99.90;;;;;;5155963;27;20039;-77
2021/12/03 08:14:13;;;;;;;86.82;44.63;;;1.60;99.90;;;;;;5155672;27;20054;-78
2021/12/03 08:16:39;;;;;;;86.55;44.05;;;1.50;99.90;;;;;;5155412;27;20047;-78
2021/12/03 08:19:05;;;;;;;92.15;42.70;;;1.60;99.90;;;;;;5156006;27;20042;-78
2021/12/03 08:21:31;;;;;;;90.90;44.25;;;1.60;99.90;;;;;;5136242;27;20050;-77
2021/12/03 08:23:57;;;;;;;90.75;43.85;;;1.60;99.90;;;;;;5155732;27;20099;-78
2021/12/03 08:26:23;;;;;;;94.93;43.28;;;1.70;99.90;;;;;;5145521;27;20412;-78
2021/12/03 08:28:49;;;;;;;93.65;44.05;;;1.70;99.90;;;;;;5134256;27;20084;-78
2021/12/03 08:31:15;;;;;;;91.78;41.83;;;1.70;99.90;;;;;;5134605;27;20039;-78
2021/12/03 08:33:42;;;;;;;93.88;43.33;;;1.70;99.90;;;;;;5134462;27;20043;-77
2021/12/03 08:36:08;;;;;;;102.95;44.42;;;1.80;99.90;;;;;;5136237;27;20043;-77
2021/12/03 08:38:34;;;;;;;101.88;44.47;;;1.80;99.90;;;;;;5134021;27;20039;-75
2021/12/03 08:41:00;;;;;;;104.43;43.58;;;1.90;99.90;;;;;;5134770;27;20100;-79
2021/12/03 08:43:26;;;;;;;96.20;43.83;;;2.00;99.90;;;;;;5115594;27;20109;-77
2021/12/03 08:45:55;;;;;;;96.15;43.58;;;2.00;99.90;;;;;;5138459;27;20054;-78
2021/12/03 08:48:26;;;;;;;102.90;44.83;;;2.00;99.90;;;;;;5154741;27;20133;-76
2021/12/03 08:51:06;;;;;;;105.18;45.28;;;2.00;99.90;;;;;;5155239;27;20067;-78
2021/12/03 08:56:16;;;;;;;99.25;43.72;;;2.10;99.90;;;;;;5154914;27;20558;-77
2021/12/03 08:58:43;;;;;;;94.78;43.53;;;2.10;99.90;;;;;;5146086;27;20130;-76
2021/12/03 09:01:11;;;;;;;89.90;43.55;;;2.10;99.90;;;;;;5144805;27;20043;-77
2021/12/03 09:03:37;;;;;;;93.80;42.88;;;2.10;99.90;;;;;;5149866;27;20047;-77
2021/12/03 09:06:03;;;;;;;90.90;42.42;;;2.20;99.90;;;;;;5152227;27;20403;-77
2021/12/03 09:08:28;;;;;;;91.13;41.42;;;2.20;99.90;;;;;;5132883;27;20042;-77
2021/12/03 09:10:54;;;;;;;87.45;41.25;;;2.10;99.90;;;;;;5133372;27;20042;-75
2021/12/03 09:13:20;;;;;;;88.35;40.17;;;2.30;99.90;;;;;;5151085;27;20047;-74
2021/12/03 09:16:21;;;;;;;84.93;41.17;;;2.40;99.90;;;;;;5151344;27;20125;-77
2021/12/03 09:18:42;;;;;;;83.13;40.95;;;2.30;99.90;;;;;;5147788;27;20046;-77
2021/12/03 09:21:32;;;;;;;81.78;39.58;;;2.40;99.90;;;;;;5151643;27;20039;-74
2021/12/03 09:24:07;;;;;;;84.45;39.10;;;2.40;99.90;;;;;;5150248;27;20046;-76
2021/12/03 09:26:36;;;;;;;75.15;37.78;;;2.40;99.90;;;;;;5150782;27;20035;-78
2021/12/03 09:29:12;;;;;;;77.55;37.92;;;2.40;99.90;;;;;;5131979;27;20491;-75
2021/12/03 09:31:44;;;;;;;75.50;37.15;;;2.50;99.90;;;;;;5145951;27;20042;-77
2021/12/03 09:34:14;;;;;;;75.45;36.22;;;2.50;99.90;;;;;;5149779;27;20061;-76
2021/12/03 09:36:41;;;;;;;69.40;36.50;;;2.60;99.90;;;;;;5141765;27;20047;-78
2021/12/03 09:39:23;;;;;;;68.05;34.60;;;2.60;99.90;;;;;;5130651;27;20057;-75
2021/12/03 09:41:51;;;;;;;63.20;31.83;;;2.70;99.90;;;;;;5130644;27;20055;-76
2021/12/03 09:44:18;;;;;;;59.47;32.85;;;2.70;99.90;;;;;;5132799;27;20104;-77
2021/12/03 09:46:44;;;;;;;57.85;30.70;;;2.70;99.90;;;;;;5133216;27;20154;-77
2021/12/03 09:54:59;;;;;;;49.40;27.05;;;2.80;99.90;;;;;;5134396;27;20518;-77
2021/12/03 10:00:17;;;;;;;42.05;25.10;;;2.80;99.90;;;;;;5135968;27;20385;-79
2021/12/03 10:20:38;;;;;;;30.90;18.75;;;2.90;99.90;;;;;;5153559;27;20054;-77
2021/12/03 10:25:35;;;;;;;29.48;17.05;;;3.00;99.90;;;;;;5153677;27;20050;-77
2021/12/03 10:28:19;;;;;;;33.63;16.70;;;3.10;99.90;;;;;;5154193;27;20092;-76
2021/12/03 10:33:48;;;;;;;31.77;17.50;;;3.10;99.90;;;;;;5117694;28;20056;-76
2021/12/03 13:08:27;;;;;;;16.23;11.00;;;3.30;99.90;;;;;;5153868;27;19930;-76
2021/12/03 14:42:59;;;;;;;16.65;7.78;;;3.90;99.90;;;;;;5144977;27;19926;-78
2021/12/03 14:51:13;;;;;;;13.80;8.05;;;3.90;99.90;;;;;;5113814;27;20052;-76
2021/12/03 14:56:10;;;;;;;17.13;7.97;;;3.90;99.90;;;;;;5144689;27;20051;-76
2021/12/03 15:09:19;;;;;;;13.13;7.78;;;4.00;99.90;;;;;;5156868;27;20104;-78
2021/12/03 15:38:18;;;;;;;12.73;7.45;;;4.10;99.90;;;;;;5156592;27;20050;-75
2021/12/03 15:41:23;;;;;;;9.20;7.43;;;4.10;99.90;;;;;;5156811;27;20106;-79
2021/12/03 16:50:42;;;;;;;11.68;10.43;;;4.20;99.90;;;;;;5153183;27;20456;-78
2021/12/03 16:53:00;;;;;;;11.18;10.05;;;4.20;99.90;;;;;;5154036;27;20050;-78
2021/12/03 16:55:25;;;;;;;11.27;10.15;;;4.20;99.90;;;;;;5154148;27;20039;-78
2021/12/03 16:57:53;;;;;;;11.02;9.90;;;4.20;99.90;;;;;;5154561;27;20066;-77
2021/12/03 17:01:26;;;;;;;12.27;9.90;;;4.20;99.90;;;;;;5149075;27;20452;-78
2021/12/03 17:03:24;;;;;;;11.73;10.32;;;4.20;99.90;;;;;;5128788;27;20410;-78
2021/12/03 17:13:59;;;;;;;11.95;10.75;;;4.20;99.90;;;;;;5136535;27;20043;-79
2021/12/03 17:54:22;;;;;;;15.13;13.45;;;4.40;99.90;;;;;;5140859;27;20556;-76
2021/12/03 17:56:49;;;;;;;16.45;13.95;;;4.40;99.90;;;;;;5122507;27;20050;-76
2021/12/03 17:59:30;;;;;;;16.05;13.73;;;4.40;99.90;;;;;;5140540;27;20055;-74
2021/12/03 18:04:47;;;;;;;17.85;14.80;;;4.40;99.90;;;;;;5144138;27;20043;-77
2021/12/03 18:57:59;;;;;;;22.55;17.10;;;4.40;99.90;;;;;;5133309;28;20436;-76
2021/12/03 19:00:28;;;;;;;19.52;17.13;;;4.30;99.90;;;;;;5133109;27;20080;-76
2021/12/03 19:02:56;;;;;;;20.83;17.13;;;4.40;99.90;;;;;;5133692;27;20046;-76
2021/12/03 19:08:08;;;;;;;21.13;16.85;;;4.40;99.90;;;;;;5153051;27;20483;-77
2021/12/03 19:10:41;;;;;;;21.45;17.77;;;4.40;99.90;;;;;;5152985;27;20093;-75
2021/12/03 19:13:11;;;;;;;21.40;17.27;;;4.40;99.90;;;;;;5155011;27;20030;-76
2021/12/03 19:15:40;;;;;;;19.85;16.23;;;4.40;99.90;;;;;;5117602;27;20054;-77
2021/12/03 19:18:06;;;;;;;20.17;16.73;;;4.40;99.90;;;;;;5153295;27;20038;-77
2021/12/03 19:20:36;;;;;;;21.23;17.30;;;4.40;99.90;;;;;;5155633;27;20399;-76
2021/12/03 19:23:02;;;;;;;21.45;17.63;;;4.50;99.90;;;;;;5157155;27;20045;-77
2021/12/03 19:25:28;;;;;;;19.60;16.63;;;4.40;99.90;;;;;;5137635;27;20047;-75
2021/12/03 19:27:54;;;;;;;18.83;15.80;;;4.40;99.90;;;;;;5156179;27;20050;-74
2021/12/03 19:30:20;;;;;;;21.30;16.17;;;4.40;99.90;;;;;;5155448;27;20054;-77
2021/12/03 19:32:46;;;;;;;20.17;17.02;;;4.40;99.90;;;;;;5137520;27;20151;-76
2021/12/03 19:35:12;;;;;;;23.13;16.50;;;4.40;99.90;;;;;;5137784;27;20125;-75
2021/12/03 19:37:38;;;;;;;20.63;16.52;;;4.40;99.90;;;;;;5154301;27;20046;-76
2021/12/03 19:40:08;;;;;;;20.02;16.60;;;4.50;99.90;;;;;;5155211;27;20057;-75
2021/12/03 19:42:50;;;;;;;20.60;17.13;;;4.50;99.90;;;;;;5154427;27;20585;-75
2021/12/03 19:45:19;;;;;;;22.08;17.55;;;4.50;99.90;;;;;;5148883;27;20061;-76
2021/12/03 19:53:01;;;;;;;20.92;16.02;;;4.50;99.90;;;;;;5154366;27;20062;-76
2021/12/03 19:55:27;;;;;;;20.83;17.15;;;4.50;99.90;;;;;;5150366;27;20074;-74
2021/12/03 19:57:53;;;;;;;23.30;18.23;;;4.50;99.90;;;;;;5152233;27;20039;-77
2021/12/03 20:00:25;;;;;;;22.05;17.02;;;4.50;99.90;;;;;;5155428;27;20049;-75
2021/12/03 20:02:51;;;;;;;22.98;17.45;;;4.50;99.90;;;;;;5154916;27;20046;-76
2021/12/03 20:05:17;;;;;;;23.00;17.73;;;4.50;99.90;;;;;;5156097;27;20069;-76
2021/12/03 20:07:43;;;;;;;23.55;17.25;;;4.50;99.90;;;;;;5155127;27;20479;-77
2021/12/03 20:10:18;;;;;;;23.83;17.58;;;4.40;99.90;;;;;;5149074;27;20103;-75
2021/12/03 20:12:46;;;;;;;23.90;17.75;;;4.50;99.90;;;;;;5154361;27;20506;-75
2021/12/03 20:15:18;;;;;;;23.88;18.23;;;4.40;99.90;;;;;;5153449;27;20058;-76
2021/12/03 20:17:52;;;;;;;23.45;17.05;;;4.40;99.90;;;;;;5148510;27;20117;-76
2021/12/03 20:20:18;;;;;;;23.50;16.10;;;4.40;99.90;;;;;;5155533;27;20447;-76
2021/12/03 20:22:50;;;;;;;22.38;16.92;;;4.50;99.90;;;;;;5154638;27;20034;-75
2021/12/03 20:28:22;;;;;;;24.70;17.30;;;4.40;99.90;;;;;;5115319;27;20058;-77
2021/12/03 20:30:45;;;;;;;25.10;18.40;;;4.40;99.90;;;;;;5130633;27;20047;-76
2021/12/03 20:33:39;;;;;;;25.90;18.15;;;4.40;99.90;;;;;;5152357;27;20070;-77
2021/12/03 20:38:56;;;;;;;22.38;17.45;;;4.40;99.90;;;;;;5122582;27;20506;-76
2021/12/03 20:41:49;;;;;;;24.10;18.30;;;4.40;99.90;;;;;;5134922;27;20081;-75
2021/12/03 20:44:22;;;;;;;25.15;18.52;;;4.40;99.90;;;;;;5150087;27;20055;-77
2021/12/03 20:46:56;;;;;;;23.15;17.25;;;4.40;99.90;;;;;;5154231;27;20054;-76
2021/12/03 20:49:37;;;;;;;24.10;18.15;;;4.40;99.90;;;;;;5115635;27;20051;-76
2021/12/03 21:08:51;;;;;;;24.65;17.27;;;4.40;99.90;;;;;;5154793;27;20047;-77
2021/12/03 21:11:22;;;;;;;24.92;16.73;;;4.50;99.90;;;;;;5136519;27;20542;-75
2021/12/03 21:13:50;;;;;;;25.77;17.67;;;4.50;99.90;;;;;;5134074;27;20074;-77
2021/12/03 21:21:56;;;;;;;23.92;16.50;;;4.50;99.90;;;;;;5154921;27;20125;-77
2021/12/03 21:24:01;;;;;;;24.63;17.20;;;4.50;99.90;;;;;;5127102;27;20134;-77
2021/12/03 21:26:30;;;;;;;23.58;16.92;;;4.50;99.90;;;;;;5153471;27;20498;-75